McNett, Pennsylvania
Current Conditions -  °F | °C
As of 6:54 AM on Thursday 27 Nov 2014 (Local Time) from KIPT Reporting Station
Overcast Overcast  
Wind Chill: 25°   Ceiling: 4400
Heat Index: 31°   Visibility: 10mi
Dew Point: 27°   Wind: 6mph
Humidity: 85%   Direction: 280°W
Pressure: 30.01"   Gusts: NA
Location:  41.5548°N, 76.8911°W
Report Text: KIPT 271154Z 28005KT 10SM OVC044 M01/M03 A3001 RMK AO2 SNB1056E1057 SLP167 P0000 60000 70049 T10061028 10000 21006 53007
Loading
Personal Weather Stations






























Interactive Weather Map New forecast layout! Learn more

10-Day Weather Forecast

Advertisements
Track Severe Weather on mobile